Time;durP1;ratioP1;P1;durP2;ratioP2;P2;SDS_P1;SDS_P2;PMS_P1;PMS_P2;Temp;Humidity;BMP_temperature;BMP_pressure;BME280_temperature;BME280_humidity;BME280_pressure;Samples;Min_cycle;Max_cycle;Signal;HPM_P1;HPM_P2
2021/12/01 00:01:50;;;;;;;56.45;35.85;;;1.40;99.90;;;;;;5014155;28;20049;-83
2021/12/01 00:04:17;;;;;;;56.88;33.65;;;1.50;99.90;;;;;;5014443;28;20057;-84
2021/12/01 00:06:45;;;;;;;50.28;31.33;;;1.50;99.90;;;;;;5026727;28;20052;-86
2021/12/01 00:09:12;;;;;;;51.47;31.60;;;1.40;99.90;;;;;;5071930;28;20048;-85
2021/12/01 00:11:40;;;;;;;47.97;29.60;;;1.40;99.90;;;;;;5071769;28;20114;-85
2021/12/01 00:14:07;;;;;;;51.88;31.13;;;1.40;99.90;;;;;;5037724;28;20131;-81
2021/12/01 00:17:17;;;;;;;51.70;30.23;;;1.50;99.90;;;;;;5050459;28;20199;-85
2021/12/01 00:19:44;;;;;;;50.65;28.23;;;1.50;99.90;;;;;;5033301;28;20084;-84
2021/12/01 00:22:11;;;;;;;57.92;31.45;;;1.50;99.90;;;;;;5032603;28;20377;-84
2021/12/01 00:24:39;;;;;;;55.60;30.60;;;1.30;99.90;;;;;;5053062;28;20488;-84
2021/12/01 00:27:06;;;;;;;49.95;27.73;;;1.10;99.90;;;;;;5040486;28;20785;-85
2021/12/01 00:29:34;;;;;;;50.67;27.35;;;1.20;99.90;;;;;;5053839;28;20135;-85
2021/12/01 00:32:02;;;;;;;37.38;24.90;;;1.10;99.90;;;;;;5053290;28;20115;-84
2021/12/01 00:34:31;;;;;;;34.95;21.23;;;1.10;99.90;;;;;;5052923;28;20492;-86
2021/12/01 00:36:59;;;;;;;36.35;20.90;;;1.10;99.90;;;;;;5036498;28;20063;-83
2021/12/01 00:39:26;;;;;;;29.80;19.23;;;0.90;99.90;;;;;;5069103;28;20061;-85
2021/12/01 00:41:56;;;;;;;23.10;16.92;;;1.10;99.90;;;;;;5035984;28;20041;-84
2021/12/01 00:44:24;;;;;;;23.50;15.45;;;1.20;99.90;;;;;;5036917;28;20080;-84
2021/12/01 00:46:56;;;;;;;19.90;14.27;;;1.30;99.90;;;;;;5056469;28;20089;-86
2021/12/01 00:49:23;;;;;;;23.23;14.35;;;1.20;99.90;;;;;;5058217;28;20048;-83
2021/12/01 00:51:51;;;;;;;19.58;13.15;;;1.00;99.90;;;;;;5074174;28;20044;-82
2021/12/01 01:00:20;;;;;;;22.27;14.70;;;0.50;99.90;;;;;;1121166;26;20320;-86
2021/12/01 01:02:48;;;;;;;23.63;16.33;;;0.80;99.90;;;;;;4958886;28;20461;-82
2021/12/01 01:05:16;;;;;;;26.70;15.45;;;0.90;99.90;;;;;;4975270;28;20050;-83
2021/12/01 01:07:44;;;;;;;23.60;15.07;;;1.00;99.90;;;;;;4974933;28;20132;-84
2021/12/01 01:10:29;;;;;;;24.98;16.77;;;0.90;99.90;;;;;;4992025;28;20050;-81
2021/12/01 01:18:48;;;;;;;27.20;15.25;;;0.90;99.90;;;;;;4975265;28;20518;-88
2021/12/01 01:21:17;;;;;;;24.02;15.18;;;1.00;99.90;;;;;;4975539;28;20046;-83
2021/12/01 01:23:47;;;;;;;24.30;16.05;;;0.70;99.90;;;;;;4974417;28;20069;-81
2021/12/01 01:26:32;;;;;;;22.15;14.82;;;0.90;99.90;;;;;;4975110;28;20062;-81
2021/12/01 01:29:41;;;;;;;21.15;14.32;;;0.90;99.90;;;;;;4992394;28;20061;-83
2021/12/01 01:32:08;;;;;;;18.42;13.70;;;0.80;99.90;;;;;;4974534;28;20054;-84
2021/12/01 01:34:36;;;;;;;19.67;13.68;;;0.60;99.90;;;;;;4959908;28;20409;-89
2021/12/01 01:37:04;;;;;;;18.35;12.90;;;0.60;99.90;;;;;;4975632;28;20497;-85
2021/12/01 01:39:31;;;;;;;20.60;13.15;;;0.50;99.90;;;;;;4975336;28;20067;-84
2021/12/01 01:41:58;;;;;;;20.08;12.75;;;0.50;99.90;;;;;;4992021;28;20078;-83
2021/12/01 01:44:26;;;;;;;19.40;13.07;;;0.50;99.90;;;;;;4975006;28;20474;-84
2021/12/01 01:46:53;;;;;;;18.23;12.45;;;0.40;99.90;;;;;;4958060;28;20137;-85
2021/12/01 01:57:55;;;;;;;15.75;10.38;;;0.50;99.90;;;;;;4991836;28;20022;-87
2021/12/01 02:03:23;;;;;;;15.43;10.48;;;0.40;99.90;;;;;;4987224;28;20184;-84
2021/12/01 02:05:52;;;;;;;15.02;10.70;;;0.40;99.90;;;;;;4958461;28;20189;-81
2021/12/01 02:08:27;;;;;;;15.27;10.40;;;0.30;99.90;;;;;;4957680;28;20121;-82
2021/12/01 02:10:57;;;;;;;15.27;10.93;;;0.40;99.90;;;;;;4991435;28;20139;-82
2021/12/01 02:13:27;;;;;;;15.73;10.68;;;0.40;99.90;;;;;;4974046;28;20059;-82
2021/12/01 02:15:58;;;;;;;18.38;11.02;;;0.30;99.90;;;;;;4973879;28;20055;-82
2021/12/01 02:18:27;;;;;;;19.02;10.85;;;0.00;99.90;;;;;;4973516;28;20133;-80
2021/12/01 02:21:12;;;;;;;16.42;11.52;;;0.00;99.90;;;;;;4991534;28;20130;-82
2021/12/01 02:23:43;;;;;;;21.00;12.68;;;0.00;99.90;;;;;;4973935;28;20050;-81
2021/12/01 02:26:12;;;;;;;14.07;10.70;;;0.20;99.90;;;;;;4974123;28;20050;-80
2021/12/01 02:28:41;;;;;;;17.42;10.80;;;0.30;99.90;;;;;;4957873;28;20042;-80
2021/12/01 02:31:09;;;;;;;19.35;10.95;;;-0.10;99.90;;;;;;4958236;28;20161;-80
2021/12/01 02:33:36;;;;;;;15.45;11.20;;;0.20;99.90;;;;;;4974082;28;20042;-80
2021/12/01 02:36:08;;;;;;;17.13;11.32;;;0.40;99.90;;;;;;4991417;28;20042;-80
2021/12/01 02:38:36;;;;;;;14.80;11.27;;;0.60;99.90;;;;;;4974397;28;20121;-85
2021/12/01 02:41:04;;;;;;;15.43;11.20;;;0.60;99.90;;;;;;4958776;28;20050;-87
2021/12/01 02:43:31;;;;;;;17.85;11.32;;;0.70;99.90;;;;;;4974919;28;20093;-85
2021/12/01 02:46:08;;;;;;;17.95;12.00;;;0.70;99.90;;;;;;4958761;28;20207;-85
2021/12/01 02:48:41;;;;;;;21.92;10.73;;;0.70;99.90;;;;;;4976751;28;20455;-87
2021/12/01 02:51:23;;;;;;;15.25;11.50;;;0.50;99.90;;;;;;4960008;28;20054;-86
2021/12/01 02:54:17;;;;;;;18.55;10.80;;;0.50;99.90;;;;;;4959659;28;20432;-87
2021/12/01 02:56:50;;;;;;;18.35;12.15;;;0.50;99.90;;;;;;4958855;28;20079;-87
2021/12/01 02:59:17;;;;;;;19.42;12.10;;;0.30;99.90;;;;;;4961504;28;20039;-87
2021/12/01 03:01:53;;;;;;;18.13;12.15;;;0.40;99.90;;;;;;4963289;28;20046;-86
2021/12/01 03:04:22;;;;;;;19.50;12.43;;;0.60;99.90;;;;;;4964803;28;20109;-88
2021/12/01 03:06:50;;;;;;;20.77;12.52;;;0.60;99.90;;;;;;4997095;28;20047;-87
2021/12/01 03:09:18;;;;;;;19.80;13.13;;;0.30;99.90;;;;;;4979068;28;20048;-86
2021/12/01 03:12:50;;;;;;;17.75;13.70;;;0.30;99.90;;;;;;4985587;28;20038;-85
2021/12/01 03:15:20;;;;;;;21.17;14.82;;;0.00;99.90;;;;;;4977496;28;20052;-82
2021/12/01 03:18:37;;;;;;;21.63;14.32;;;0.20;99.90;;;;;;4994951;28;20030;-85
2021/12/01 03:21:08;;;;;;;20.67;13.68;;;0.30;99.90;;;;;;4978173;28;20065;-84
2021/12/01 03:23:38;;;;;;;;;;;0.20;99.90;;;;;;4995661;28;20121;-85
2021/12/01 03:26:06;;;;;;;;;;;0.30;99.90;;;;;;4962310;28;19930;-82
2021/12/01 03:28:34;;;;;;;19.30;13.00;;;0.60;99.90;;;;;;4977775;28;20401;-87
2021/12/01 03:31:01;;;;;;;19.08;11.52;;;0.70;99.90;;;;;;4977624;28;20042;-85
2021/12/01 03:33:29;;;;;;;17.40;12.45;;;0.70;99.90;;;;;;4977723;28;20110;-83
2021/12/01 03:35:56;;;;;;;17.05;11.98;;;0.60;99.90;;;;;;4977636;28;20126;-82
2021/12/01 03:38:27;;;;;;;19.63;12.38;;;0.70;99.90;;;;;;4961282;28;20101;-81
2021/12/01 03:40:57;;;;;;;19.38;12.23;;;0.70;99.90;;;;;;4961705;28;20078;-80
2021/12/01 03:43:25;;;;;;;19.15;12.07;;;0.50;99.90;;;;;;4976913;28;20037;-80
2021/12/01 03:45:54;;;;;;;22.42;12.77;;;0.60;99.90;;;;;;4960410;28;20510;-85
2021/12/01 03:48:22;;;;;;;21.38;12.27;;;0.70;99.90;;;;;;4976957;28;20402;-80
2021/12/01 03:50:51;;;;;;;23.08;13.20;;;0.70;99.90;;;;;;4977265;28;20277;-84
2021/12/01 03:53:49;;;;;;;16.40;12.20;;;0.50;99.90;;;;;;4977089;28;20129;-82
2021/12/01 03:56:51;;;;;;;14.80;11.15;;;0.40;99.90;;;;;;4951977;28;20133;-82
2021/12/01 03:59:19;;;;;;;18.60;12.52;;;-0.20;99.90;;;;;;4976880;28;20453;-81
2021/12/01 04:01:46;;;;;;;19.15;12.48;;;-0.50;99.90;;;;;;4976288;28;20407;-82
2021/12/01 04:04:14;;;;;;;18.58;11.93;;;0.00;99.90;;;;;;4975995;28;20128;-82
2021/12/01 04:06:41;;;;;;;19.42;12.15;;;0.40;99.90;;;;;;4976533;28;20048;-81
2021/12/01 04:09:08;;;;;;;19.17;11.57;;;0.50;99.90;;;;;;4960302;28;20131;-82
2021/12/01 04:11:37;;;;;;;20.92;11.80;;;0.50;99.90;;;;;;4976571;28;20052;-82
2021/12/01 04:14:04;;;;;;;17.90;12.88;;;0.60;99.90;;;;;;4993453;28;20108;-83
2021/12/01 04:16:32;;;;;;;17.60;12.90;;;0.70;99.90;;;;;;4993987;28;20046;-81
2021/12/01 04:18:59;;;;;;;16.95;11.70;;;0.60;99.90;;;;;;4975497;28;20116;-81
2021/12/01 04:21:27;;;;;;;16.83;11.45;;;0.50;99.90;;;;;;4993133;28;20050;-81
2021/12/01 04:23:55;;;;;;;17.00;12.18;;;0.50;99.90;;;;;;4976050;28;20042;-82
2021/12/01 04:26:26;;;;;;;17.17;12.68;;;0.40;99.90;;;;;;4960368;28;20057;-82
2021/12/01 04:28:55;;;;;;;18.60;12.70;;;0.30;99.90;;;;;;4992791;28;20434;-81
2021/12/01 04:31:23;;;;;;;17.05;12.95;;;0.50;99.90;;;;;;4960366;28;20046;-87
2021/12/01 04:33:50;;;;;;;17.88;12.65;;;0.50;99.90;;;;;;4976099;28;20042;-83
2021/12/01 04:36:18;;;;;;;20.95;13.32;;;0.40;99.90;;;;;;4976115;28;20509;-81
2021/12/01 04:38:46;;;;;;;15.73;11.80;;;0.40;99.90;;;;;;4993321;28;20137;-82
2021/12/01 04:41:14;;;;;;;17.80;12.25;;;0.40;99.90;;;;;;4976218;28;20076;-82
2021/12/01 04:43:42;;;;;;;20.48;11.98;;;0.40;99.90;;;;;;4993514;28;20060;-80
2021/12/01 04:46:10;;;;;;;18.33;12.38;;;0.30;99.90;;;;;;4976393;28;20044;-85
2021/12/01 04:48:38;;;;;;;15.65;11.07;;;0.10;99.90;;;;;;4960365;28;20047;-85
2021/12/01 04:51:05;;;;;;;17.90;12.05;;;0.20;99.90;;;;;;4960082;28;20068;-84
2021/12/01 04:53:32;;;;;;;19.55;12.45;;;0.20;99.90;;;;;;4959715;28;20053;-84
2021/12/01 04:56:00;;;;;;;21.08;12.00;;;0.20;99.90;;;;;;4959822;28;20054;-85
2021/12/01 04:59:05;;;;;;;20.67;12.35;;;0.20;99.90;;;;;;4955459;28;20047;-85
2021/12/01 05:01:36;;;;;;;19.45;12.13;;;0.10;99.90;;;;;;4953949;28;20525;-82
2021/12/01 05:04:05;;;;;;;16.60;11.70;;;0.20;99.90;;;;;;4970588;28;20106;-82
2021/12/01 05:06:32;;;;;;;19.88;12.13;;;0.20;99.90;;;;;;4955040;28;20059;-83
2021/12/01 05:09:00;;;;;;;22.15;12.38;;;0.20;99.90;;;;;;4954972;28;20145;-84
2021/12/01 05:11:27;;;;;;;16.77;11.60;;;0.20;99.90;;;;;;4939101;28;20137;-81
2021/12/01 05:14:10;;;;;;;13.90;11.13;;;0.30;99.90;;;;;;4970923;28;20050;-83
2021/12/01 05:16:41;;;;;;;16.20;10.63;;;0.30;99.90;;;;;;4939181;28;20198;-81
2021/12/01 05:19:10;;;;;;;20.23;12.30;;;0.10;99.90;;;;;;4939135;28;20523;-86
2021/12/01 05:21:39;;;;;;;16.70;11.07;;;0.20;99.90;;;;;;4938143;28;20054;-82
2021/12/01 05:24:07;;;;;;;15.32;10.80;;;0.30;99.90;;;;;;4954525;28;20075;-84
2021/12/01 05:26:34;;;;;;;16.42;10.80;;;0.30;99.90;;;;;;4954894;28;20051;-83
2021/12/01 05:29:03;;;;;;;19.75;11.55;;;0.20;99.90;;;;;;4957273;28;20074;-83
2021/12/01 05:31:31;;;;;;;18.13;11.77;;;0.30;99.90;;;;;;4977802;28;20081;-83
2021/12/01 05:33:59;;;;;;;19.75;12.65;;;0.20;99.90;;;;;;4956540;28;20051;-83
2021/12/01 05:36:26;;;;;;;19.15;13.23;;;0.20;99.90;;;;;;4974095;28;20050;-83
2021/12/01 05:38:54;;;;;;;16.35;12.02;;;0.20;99.90;;;;;;4974151;28;20070;-85
2021/12/01 05:41:21;;;;;;;14.75;11.13;;;0.10;99.90;;;;;;4974317;28;20078;-84
2021/12/01 05:43:49;;;;;;;14.65;10.00;;;0.10;99.90;;;;;;4956794;28;20053;-86
2021/12/01 05:46:17;;;;;;;12.95;9.70;;;0.20;99.90;;;;;;4979776;28;20047;-83
2021/12/01 05:48:44;;;;;;;14.40;9.65;;;0.20;99.90;;;;;;4989697;28;20042;-79
2021/12/01 05:51:12;;;;;;;38.92;21.13;;;0.20;99.90;;;;;;4992398;28;20133;-82
2021/12/01 05:53:39;;;;;;;100.07;47.13;;;0.50;99.90;;;;;;4991269;28;20060;-84
2021/12/01 05:56:07;;;;;;;31.10;20.85;;;0.60;99.90;;;;;;4993879;28;20042;-89
2021/12/01 05:58:35;;;;;;;22.67;14.77;;;0.30;99.90;;;;;;4977022;28;20161;-83
2021/12/01 06:01:02;;;;;;;18.10;11.95;;;0.20;99.90;;;;;;4992780;28;20175;-87
2021/12/01 06:03:30;;;;;;;16.45;11.80;;;0.00;99.90;;;;;;4996374;28;20398;-87
2021/12/01 06:05:59;;;;;;;23.70;12.38;;;0.00;99.90;;;;;;5012915;28;20453;-87
2021/12/01 06:08:30;;;;;;;19.10;12.85;;;0.10;99.90;;;;;;5012112;28;20129;-84
2021/12/01 06:10:57;;;;;;;35.78;18.98;;;0.40;99.90;;;;;;5011676;28;20042;-84
2021/12/01 06:13:25;;;;;;;64.22;37.30;;;0.50;99.90;;;;;;4916138;28;20070;-79
2021/12/01 06:15:53;;;;;;;69.13;31.23;;;0.50;99.90;;;;;;4965103;28;20503;-90
2021/12/01 06:18:24;;;;;;;44.88;26.60;;;0.70;99.90;;;;;;4939254;29;20120;-88
2021/12/01 06:20:52;;;;;;;20.65;14.30;;;0.50;99.90;;;;;;4964690;28;20375;-82
2021/12/01 06:35:08;;;;;;;15.15;11.23;;;0.40;99.90;;;;;;5579877;23;20502;-86
2021/12/01 06:37:36;;;;;;;44.60;21.58;;;0.50;99.90;;;;;;4973405;28;20072;-82
2021/12/01 06:40:13;;;;;;;92.22;43.95;;;0.70;99.90;;;;;;4975239;28;20073;-90
2021/12/01 06:42:40;;;;;;;21.52;15.60;;;1.20;99.90;;;;;;4976754;28;20043;-88
2021/12/01 06:45:10;;;;;;;19.50;13.50;;;1.00;99.90;;;;;;4976068;28;20042;-86
2021/12/01 06:47:39;;;;;;;;;;;0.90;99.90;;;;;;4960019;28;20133;-86
2021/12/01 06:50:08;;;;;;;26.10;14.45;;;0.70;99.90;;;;;;4975199;28;20021;-86
2021/12/01 07:07:19;;;;;;;23.23;14.93;;;1.00;99.90;;;;;;4940365;29;20043;-87
2021/12/01 07:09:56;;;;;;;24.55;15.07;;;1.00;99.90;;;;;;4957146;29;20047;-85
2021/12/01 07:12:23;;;;;;;24.77;15.82;;;1.30;99.90;;;;;;4956434;29;20043;-86
2021/12/01 07:15:06;;;;;;;24.08;14.88;;;1.60;99.90;;;;;;4939149;29;20066;-85
2021/12/01 07:17:37;;;;;;;20.25;13.48;;;2.10;99.90;;;;;;4939376;29;20051;-86
2021/12/01 07:20:06;;;;;;;25.65;14.80;;;2.50;99.90;;;;;;4938687;29;20077;-86
2021/12/01 07:22:33;;;;;;;18.90;13.63;;;2.60;99.90;;;;;;4921209;29;20043;-85
2021/12/01 07:25:01;;;;;;;17.73;13.77;;;2.80;99.90;;;;;;4921809;29;20403;-87
2021/12/01 07:27:28;;;;;;;20.35;13.77;;;3.10;99.90;;;;;;4954548;29;20110;-86
2021/12/01 07:29:56;;;;;;;19.45;12.90;;;2.70;99.90;;;;;;4936796;29;20514;-88
2021/12/01 07:32:23;;;;;;;18.67;13.05;;;2.90;99.90;;;;;;4921609;29;20055;-87
2021/12/01 07:34:51;;;;;;;23.08;14.25;;;2.70;99.90;;;;;;4921866;29;20045;-86
2021/12/01 07:52:31;;;;;;;22.23;13.38;;;3.60;99.90;;;;;;4989742;28;20201;-86
2021/12/01 07:55:00;;;;;;;23.70;14.82;;;4.30;99.90;;;;;;4961269;28;20074;-86
2021/12/01 07:57:28;;;;;;;19.70;14.80;;;4.20;99.90;;;;;;4976136;28;20142;-85
2021/12/01 07:59:55;;;;;;;15.68;12.40;;;4.40;99.90;;;;;;4994731;28;20133;-86
2021/12/01 08:02:23;;;;;;;17.52;12.13;;;4.30;99.90;;;;;;4978012;28;20098;-87
2021/12/01 08:04:51;;;;;;;19.50;12.60;;;4.50;99.90;;;;;;4960872;28;20074;-87
2021/12/01 08:20:56;;;;;;;20.48;13.52;;;5.30;99.90;;;;;;5307384;23;19918;-89
2021/12/01 08:23:23;;;;;;;22.02;14.00;;;5.50;99.90;;;;;;4957233;28;20094;-87
2021/12/01 08:25:51;;;;;;;19.23;14.00;;;6.10;99.90;;;;;;4956686;28;20059;-87
2021/12/01 08:28:22;;;;;;;17.95;13.95;;;5.70;99.90;;;;;;4957262;28;20109;-87
2021/12/01 08:31:04;;;;;;;17.25;13.90;;;5.60;99.90;;;;;;4941018;28;20046;-87
2021/12/01 08:33:31;;;;;;;22.02;13.65;;;5.60;99.90;;;;;;4941798;28;20047;-87
2021/12/01 08:36:02;;;;;;;20.58;13.73;;;5.50;99.90;;;;;;4957214;28;20050;-86
2021/12/01 08:39:23;;;;;;;20.10;13.80;;;6.00;99.90;;;;;;4957451;28;20054;-86
2021/12/01 08:42:06;;;;;;;19.20;13.75;;;6.40;99.90;;;;;;4974287;28;20216;-87
2021/12/01 08:44:33;;;;;;;22.75;13.60;;;6.80;99.90;;;;;;4957868;28;20063;-87
2021/12/01 08:47:01;;;;;;;17.90;13.65;;;7.00;99.90;;;;;;4941052;28;20047;-85
2021/12/01 08:49:29;;;;;;;20.85;13.30;;;7.00;99.90;;;;;;4942637;28;20055;-86
2021/12/01 08:51:56;;;;;;;17.73;13.63;;;6.90;99.70;;;;;;4940788;28;20129;-86
2021/12/01 08:54:23;;;;;;;20.38;13.50;;;7.00;99.80;;;;;;4940291;28;20511;-86
2021/12/01 08:56:51;;;;;;;18.70;13.63;;;7.40;98.90;;;;;;4939980;28;20074;-85
2021/12/01 08:59:18;;;;;;;18.55;13.75;;;7.70;98.10;;;;;;4956379;28;20126;-86
2021/12/01 09:01:44;;;;;;;20.63;13.30;;;7.90;97.30;;;;;;4956322;28;20538;-85
2021/12/01 09:04:12;;;;;;;17.60;13.40;;;7.80;96.80;;;;;;4940423;28;20054;-86
2021/12/01 09:06:43;;;;;;;18.98;14.15;;;7.70;97.30;;;;;;4956438;28;20066;-90
2021/12/01 09:10:04;;;;;;;18.55;12.95;;;8.10;96.10;;;;;;4941388;28;20078;-88
2021/12/01 09:13:11;;;;;;;17.27;13.43;;;8.40;95.30;;;;;;4974692;28;20186;-86
2021/12/01 09:20:14;;;;;;;17.08;11.68;;;7.30;95.00;;;;;;4959770;28;20178;-89
2021/12/01 09:22:42;;;;;;;18.77;12.15;;;8.10;94.70;;;;;;4957357;28;20087;-90
2021/12/01 09:25:12;;;;;;;16.20;13.02;;;8.30;93.60;;;;;;4941994;28;20051;-91
2021/12/01 09:27:40;;;;;;;18.35;13.55;;;8.30;93.70;;;;;;4957679;28;20141;-90
2021/12/01 09:30:16;;;;;;;20.00;13.27;;;7.90;93.50;;;;;;4958037;28;20050;-89
2021/12/01 09:32:44;;;;;;;18.67;14.13;;;7.70;93.60;;;;;;4957127;28;20525;-90
2021/12/01 09:35:15;;;;;;;23.48;15.43;;;8.00;94.40;;;;;;4975382;28;20109;-91
2021/12/01 09:41:59;;;;;;;18.98;13.32;;;7.50;93.30;;;;;;4973322;28;20185;-84
2021/12/01 09:45:06;;;;;;;20.73;14.95;;;8.50;91.70;;;;;;4913594;29;20263;-80
2021/12/01 09:47:36;;;;;;;23.83;15.63;;;8.40;92.00;;;;;;4973307;28;20061;-89
2021/12/01 09:50:06;;;;;;;22.30;17.17;;;8.40;93.70;;;;;;4974352;28;20051;-87
2021/12/01 09:52:33;;;;;;;18.70;14.45;;;9.50;92.50;;;;;;4974313;28;20065;-91
2021/12/01 09:55:01;;;;;;;19.95;14.73;;;9.90;91.40;;;;;;4958055;28;20051;-85
2021/12/01 09:57:28;;;;;;;20.33;13.80;;;10.10;90.40;;;;;;4972778;28;20403;-88
2021/12/01 09:59:55;;;;;;;18.30;13.45;;;10.10;87.80;;;;;;4955828;28;20054;-86
2021/12/01 10:02:25;;;;;;;17.42;13.18;;;10.40;88.60;;;;;;4974072;28;20086;-83
2021/12/01 10:04:53;;;;;;;21.02;13.52;;;11.10;86.60;;;;;;4972813;28;20117;-83
2021/12/01 10:07:30;;;;;;;16.80;12.60;;;11.40;83.10;;;;;;4956553;28;20443;-83
2021/12/01 10:10:09;;;;;;;20.55;12.57;;;11.20;82.00;;;;;;4959504;28;20046;-82
2021/12/01 10:12:49;;;;;;;18.23;12.77;;;11.10;80.40;;;;;;4976869;28;20550;-82
2021/12/01 10:15:32;;;;;;;17.73;11.85;;;11.30;80.50;;;;;;4960048;28;20053;-82
2021/12/01 10:18:16;;;;;;;18.38;12.45;;;11.50;79.40;;;;;;4943720;28;20055;-84
2021/12/01 10:20:57;;;;;;;16.23;13.25;;;11.40;77.30;;;;;;4976540;28;20088;-83
2021/12/01 10:23:25;;;;;;;17.70;12.85;;;11.20;77.00;;;;;;4976439;28;20062;-83
2021/12/01 10:26:10;;;;;;;21.48;12.32;;;11.40;77.70;;;;;;4976033;28;20082;-81
2021/12/01 10:28:43;;;;;;;17.13;11.55;;;11.50;75.80;;;;;;4976366;28;20081;-82
2021/12/01 10:31:14;;;;;;;18.77;11.95;;;11.80;75.90;;;;;;4959440;28;20155;-82
2021/12/01 10:33:42;;;;;;;16.23;11.60;;;12.20;74.00;;;;;;4958917;28;20137;-84
2021/12/01 10:36:10;;;;;;;15.68;11.73;;;12.00;72.00;;;;;;4958730;28;20205;-83
2021/12/01 10:38:41;;;;;;;21.48;12.13;;;11.70;72.90;;;;;;4976270;28;20106;-83
2021/12/01 10:41:12;;;;;;;15.93;12.10;;;11.80;72.80;;;;;;4976028;28;20406;-81
2021/12/01 10:43:48;;;;;;;16.92;11.32;;;11.60;72.40;;;;;;4960035;28;20158;-84
2021/12/01 10:46:20;;;;;;;14.60;10.82;;;11.70;72.00;;;;;;4975979;28;20051;-85
2021/12/01 10:49:03;;;;;;;14.93;9.75;;;11.60;69.70;;;;;;4959284;28;20059;-89
2021/12/01 10:51:40;;;;;;;15.93;9.80;;;11.80;68.50;;;;;;4944161;28;20071;-87
2021/12/01 10:54:19;;;;;;;16.60;9.90;;;11.50;68.40;;;;;;4960364;28;20055;-86
2021/12/01 10:57:07;;;;;;;14.55;10.20;;;11.50;68.20;;;;;;4975379;28;20406;-85
2021/12/01 10:59:44;;;;;;;16.08;10.35;;;11.80;68.30;;;;;;4942150;28;20122;-86
2021/12/01 11:02:37;;;;;;;13.25;9.23;;;10.60;69.90;;;;;;4958252;28;20109;-85
2021/12/01 11:05:06;;;;;;;13.90;10.02;;;10.60;70.70;;;;;;4975213;28;20054;-86
2021/12/01 11:07:34;;;;;;;13.75;10.07;;;10.70;71.10;;;;;;4957657;28;20138;-85
2021/12/01 11:10:18;;;;;;;12.82;9.88;;;11.50;68.90;;;;;;4975425;28;20053;-84
2021/12/01 11:13:03;;;;;;;13.43;9.00;;;11.80;68.30;;;;;;4975482;28;20058;-87
2021/12/01 11:15:34;;;;;;;11.60;8.27;;;12.10;66.70;;;;;;4975431;28;20125;-84
2021/12/01 11:18:26;;;;;;;13.02;8.73;;;12.00;65.90;;;;;;4974544;28;20050;-86
2021/12/01 11:21:09;;;;;;;11.90;9.20;;;12.50;65.60;;;;;;4940245;29;20141;-82
2021/12/01 11:24:06;;;;;;;12.27;8.50;;;11.70;65.50;;;;;;4953963;29;20055;-84
2021/12/01 11:26:58;;;;;;;11.82;8.65;;;12.00;66.40;;;;;;4954360;29;20055;-83
2021/12/01 11:29:49;;;;;;;12.45;9.48;;;12.30;65.40;;;;;;4955336;29;20051;-85
2021/12/01 11:32:19;;;;;;;14.10;10.10;;;12.50;64.90;;;;;;4955017;29;20063;-86
2021/12/01 11:35:33;;;;;;;14.15;8.98;;;12.50;64.00;;;;;;4928813;29;20074;-84
2021/12/01 11:38:00;;;;;;;12.52;8.27;;;12.70;63.50;;;;;;4938690;29;20052;-82
2021/12/01 11:40:30;;;;;;;13.15;8.55;;;12.00;63.50;;;;;;4912877;29;20056;-85
2021/12/01 11:43:02;;;;;;;14.00;8.95;;;12.40;64.90;;;;;;4933907;29;20107;-85
2021/12/01 11:45:30;;;;;;;11.82;7.30;;;12.40;63.80;;;;;;4934827;29;20040;-84
2021/12/01 11:47:58;;;;;;;10.63;7.25;;;12.60;62.70;;;;;;4919189;29;20056;-85
2021/12/01 11:50:33;;;;;;;9.07;6.40;;;12.40;61.00;;;;;;4935720;29;20043;-87
2021/12/01 11:53:06;;;;;;;9.27;5.85;;;12.20;62.00;;;;;;4919480;29;20444;-87
2021/12/01 11:59:47;;;;;;;8.68;5.55;;;13.00;58.50;;;;;;4937579;29;20080;-88
2021/12/01 12:08:52;;;;;;;7.53;5.05;;;13.50;56.80;;;;;;5468135;23;20042;-90
2021/12/01 12:11:40;;;;;;;6.90;5.00;;;13.60;57.40;;;;;;4941464;28;20582;-89
2021/12/01 12:14:28;;;;;;;10.02;5.30;;;13.50;58.00;;;;;;4979562;28;20057;-91
2021/12/01 12:17:16;;;;;;;8.60;5.22;;;13.60;56.50;;;;;;4946888;28;20065;-88
2021/12/01 12:20:30;;;;;;;8.38;5.88;;;13.60;57.00;;;;;;4953847;28;20044;-88
2021/12/01 12:23:10;;;;;;;7.32;5.07;;;13.90;56.30;;;;;;4926088;28;20103;-88
2021/12/01 12:26:40;;;;;;;7.22;4.85;;;14.00;55.70;;;;;;4967072;28;20081;-83
2021/12/01 12:29:09;;;;;;;8.40;5.15;;;13.60;55.50;;;;;;4959712;28;20066;-88
2021/12/01 12:31:37;;;;;;;6.83;5.23;;;13.30;55.80;;;;;;4966409;28;20091;-91
2021/12/01 12:38:39;;;;;;;9.75;6.70;;;13.30;56.20;;;;;;4968864;28;20042;-90
2021/12/01 12:45:11;;;;;;;7.00;4.57;;;13.70;54.80;;;;;;5014710;23;20430;-85
2021/12/01 12:47:58;;;;;;;8.63;4.70;;;15.10;52.20;;;;;;4937488;28;20043;-84
2021/12/01 12:50:28;;;;;;;6.45;4.60;;;17.90;48.30;;;;;;4951453;28;20058;-88
2021/12/01 12:53:25;;;;;;;;;;;20.00;45.40;;;;;;4947549;28;20054;-91
2021/12/01 12:55:52;;;;;;;9.20;6.22;;;20.60;43.40;;;;;;4943048;28;19926;-89
2021/12/01 13:52:33;;;;;;;18.05;11.40;;;21.80;41.60;;;;;;5069618;27;20874;-86
2021/12/01 13:55:16;;;;;;;17.02;11.82;;;16.60;46.80;;;;;;5046545;28;20048;-91
2021/12/01 14:04:03;;;;;;;23.60;14.48;;;16.70;47.20;;;;;;5067140;28;20384;-81
2021/12/01 14:16:54;;;;;;;21.10;15.98;;;17.00;47.80;;;;;;5089585;27;20112;-83
2021/12/01 14:19:27;;;;;;;23.70;16.27;;;13.70;53.90;;;;;;5052710;28;20076;-84
2021/12/01 14:22:46;;;;;;;25.23;16.30;;;12.00;57.20;;;;;;5058962;22;20498;-88
2021/12/01 14:29:22;;;;;;;25.27;16.83;;;11.70;58.60;;;;;;4980998;28;20034;-85
2021/12/01 14:31:59;;;;;;;28.30;16.15;;;10.20;62.60;;;;;;4993881;28;20037;-86
2021/12/01 14:34:30;;;;;;;23.00;16.60;;;10.30;63.40;;;;;;5006968;28;20073;-86
2021/12/01 14:36:59;;;;;;;23.85;16.10;;;9.80;64.30;;;;;;4995167;28;20108;-84
2021/12/01 14:39:41;;;;;;;26.33;16.83;;;9.80;65.90;;;;;;4991474;28;20141;-89
2021/12/01 14:42:10;;;;;;;23.23;16.60;;;10.10;65.50;;;;;;4965309;28;20155;-86
2021/12/01 14:44:40;;;;;;;23.02;16.50;;;9.80;65.40;;;;;;5008901;28;20038;-90
2021/12/01 14:47:19;;;;;;;23.80;16.70;;;9.90;66.00;;;;;;4975362;28;20042;-83
2021/12/01 14:49:51;;;;;;;26.95;16.00;;;9.60;67.10;;;;;;5003091;28;20038;-87
2021/12/01 14:52:46;;;;;;;29.52;17.83;;;9.40;67.50;;;;;;4996217;28;20034;-91
2021/12/01 14:55:21;;;;;;;25.10;16.08;;;9.10;68.90;;;;;;4991754;28;20066;-87
2021/12/01 14:57:52;;;;;;;29.13;16.85;;;9.00;70.10;;;;;;4990319;28;20042;-84
2021/12/01 15:00:29;;;;;;;26.10;15.20;;;9.00;70.90;;;;;;4992252;28;20116;-88
2021/12/01 15:03:19;;;;;;;26.50;16.20;;;8.90;71.60;;;;;;4977659;28;20081;-88
2021/12/01 15:06:06;;;;;;;25.85;15.18;;;8.80;72.30;;;;;;4980277;28;20050;-87
2021/12/01 15:08:56;;;;;;;23.85;14.75;;;9.20;72.20;;;;;;4994173;28;20049;-92
2021/12/01 15:15:36;;;;;;;19.88;12.55;;;8.50;73.60;;;;;;5007779;28;20045;-84
2021/12/01 15:21:48;;;;;;;22.42;14.23;;;8.60;75.00;;;;;;4970633;28;20054;-87
2021/12/01 15:24:22;;;;;;;20.83;12.98;;;8.70;75.60;;;;;;4984289;28;20403;-86
2021/12/01 15:26:57;;;;;;;20.55;13.77;;;8.80;75.90;;;;;;4958871;28;20055;-82
2021/12/01 15:29:28;;;;;;;20.02;13.98;;;8.60;77.80;;;;;;4956512;29;20049;-82
2021/12/01 15:32:07;;;;;;;23.58;14.15;;;8.90;78.80;;;;;;4987460;28;20054;-83
2021/12/01 15:34:35;;;;;;;22.00;14.33;;;8.50;79.10;;;;;;4994164;28;20070;-86
2021/12/01 15:37:03;;;;;;;18.20;14.00;;;8.60;80.90;;;;;;4994608;28;20283;-83
2021/12/01 15:39:34;;;;;;;25.27;15.88;;;8.40;81.70;;;;;;4994486;28;20478;-83
2021/12/01 15:42:03;;;;;;;23.08;14.88;;;8.50;83.70;;;;;;4993819;28;20062;-84
2021/12/01 15:44:33;;;;;;;24.08;15.38;;;8.70;82.80;;;;;;4994308;28;20038;-82
2021/12/01 15:54:43;;;;;;;35.22;17.38;;;8.40;84.10;;;;;;4927606;28;20127;-92
2021/12/01 16:01:19;;;;;;;50.25;27.38;;;8.20;88.30;;;;;;4934771;29;20074;-84
2021/12/01 16:04:38;;;;;;;55.92;29.05;;;7.80;91.50;;;;;;4921154;29;20051;-87
2021/12/01 16:07:21;;;;;;;46.35;26.38;;;7.90;92.80;;;;;;4958935;28;20050;-87
2021/12/01 16:10:10;;;;;;;;;;;7.80;92.80;;;;;;4954335;28;20047;-86
2021/12/01 16:12:43;;;;;;;38.80;21.67;;;7.90;92.10;;;;;;5024601;28;20406;-85
2021/12/01 16:15:16;;;;;;;37.58;22.65;;;7.80;92.70;;;;;;5013254;28;20047;-89
2021/12/01 16:17:43;;;;;;;48.35;24.63;;;7.70;94.00;;;;;;5009639;28;20096;-89
2021/12/01 16:20:15;;;;;;;;;;;7.80;95.90;;;;;;4999213;28;20042;-90
2021/12/01 16:23:14;;;;;;;43.08;25.15;;;7.80;96.20;;;;;;4998355;28;19969;-83
2021/12/01 16:26:16;;;;;;;56.17;26.85;;;7.60;97.50;;;;;;5023631;28;20201;-86
2021/12/01 16:28:48;;;;;;;55.70;29.52;;;7.50;98.30;;;;;;5001182;28;20042;-91
2021/12/01 16:31:20;;;;;;;52.20;29.83;;;7.20;98.90;;;;;;5014778;28;20086;-90
2021/12/01 16:33:51;;;;;;;61.90;32.15;;;6.90;99.90;;;;;;5001001;28;20157;-88